sensor_id;sensor_type;location;lat;lon;timestamp;P1;durP1;ratioP1;P2;durP2;ratioP2
76550;SDS011;65393;53.160;18.170;2023-03-17T00:01:37;39.70;;;16.40;;
76550;SDS011;65393;53.160;18.170;2023-03-17T00:04:04;32.00;;;15.00;;
76550;SDS011;65393;53.160;18.170;2023-03-17T00:06:32;45.70;;;19.20;;
76550;SDS011;65393;53.160;18.170;2023-03-17T00:08:59;37.00;;;15.20;;
76550;SDS011;65393;53.160;18.170;2023-03-17T00:11:26;32.60;;;12.90;;
76550;SDS011;65393;53.160;18.170;2023-03-17T00:13:53;25.70;;;10.90;;
76550;SDS011;65393;53.160;18.170;2023-03-17T00:16:26;33.20;;;12.50;;
76550;SDS011;65393;53.160;18.170;2023-03-17T00:18:54;33.80;;;14.60;;
76550;SDS011;65393;53.160;18.170;2023-03-17T00:21:27;32.10;;;13.30;;
76550;SDS011;65393;53.160;18.170;2023-03-17T00:23:56;33.70;;;14.20;;
76550;SDS011;65393;53.160;18.170;2023-03-17T00:26:24;32.90;;;12.50;;
76550;SDS011;65393;53.160;18.170;2023-03-17T00:28:52;37.50;;;14.80;;
76550;SDS011;65393;53.160;18.170;2023-03-17T00:31:21;40.00;;;15.20;;
76550;SDS011;65393;53.160;18.170;2023-03-17T00:33:52;37.60;;;14.90;;
76550;SDS011;65393;53.160;18.170;2023-03-17T00:36:21;34.50;;;14.30;;
76550;SDS011;65393;53.160;18.170;2023-03-17T00:38:50;42.70;;;17.30;;
76550;SDS011;65393;53.160;18.170;2023-03-17T00:41:18;41.60;;;16.90;;
76550;SDS011;65393;53.160;18.170;2023-03-17T00:43:45;34.30;;;15.40;;
76550;SDS011;65393;53.160;18.170;2023-03-17T00:46:16;34.80;;;15.40;;
76550;SDS011;65393;53.160;18.170;2023-03-17T00:48:47;42.40;;;17.50;;
76550;SDS011;65393;53.160;18.170;2023-03-17T00:51:14;34.70;;;14.40;;
76550;SDS011;65393;53.160;18.170;2023-03-17T00:53:42;36.00;;;14.90;;
76550;SDS011;65393;53.160;18.170;2023-03-17T00:56:10;31.50;;;12.70;;
76550;SDS011;65393;53.160;18.170;2023-03-17T00:58:40;41.00;;;17.30;;
76550;SDS011;65393;53.160;18.170;2023-03-17T01:01:08;43.40;;;18.00;;
76550;SDS011;65393;53.160;18.170;2023-03-17T01:03:36;34.60;;;15.80;;
76550;SDS011;65393;53.160;18.170;2023-03-17T01:06:05;38.20;;;15.60;;
76550;SDS011;65393;53.160;18.170;2023-03-17T01:08:36;34.60;;;14.40;;
76550;SDS011;65393;53.160;18.170;2023-03-17T01:11:14;35.80;;;16.10;;
76550;SDS011;65393;53.160;18.170;2023-03-17T01:13:44;40.70;;;15.70;;
76550;SDS011;65393;53.160;18.170;2023-03-17T01:16:11;34.10;;;14.80;;
76550;SDS011;65393;53.160;18.170;2023-03-17T01:18:38;33.30;;;15.00;;
76550;SDS011;65393;53.160;18.170;2023-03-17T01:21:05;41.80;;;17.70;;
76550;SDS011;65393;53.160;18.170;2023-03-17T01:23:33;34.40;;;15.70;;
76550;SDS011;65393;53.160;18.170;2023-03-17T01:26:03;33.90;;;15.70;;
76550;SDS011;65393;53.160;18.170;2023-03-17T01:28:32;33.10;;;13.80;;
76550;SDS011;65393;53.160;18.170;2023-03-17T01:30:59;36.40;;;15.30;;
76550;SDS011;65393;53.160;18.170;2023-03-17T01:33:28;38.80;;;16.30;;
76550;SDS011;65393;53.160;18.170;2023-03-17T01:35:54;38.60;;;16.50;;
76550;SDS011;65393;53.160;18.170;2023-03-17T01:38:21;37.50;;;15.60;;
76550;SDS011;65393;53.160;18.170;2023-03-17T01:40:49;42.10;;;17.40;;
76550;SDS011;65393;53.160;18.170;2023-03-17T01:43:21;32.10;;;13.70;;
76550;SDS011;65393;53.160;18.170;2023-03-17T01:46:12;39.30;;;15.60;;
76550;SDS011;65393;53.160;18.170;2023-03-17T01:52:03;37.90;;;16.80;;
76550;SDS011;65393;53.160;18.170;2023-03-17T01:54:36;40.50;;;17.00;;
76550;SDS011;65393;53.160;18.170;2023-03-17T01:57:09;37.40;;;16.90;;
76550;SDS011;65393;53.160;18.170;2023-03-17T01:59:45;37.30;;;15.00;;
76550;SDS011;65393;53.160;18.170;2023-03-17T02:02:18;42.50;;;16.40;;
76550;SDS011;65393;53.160;18.170;2023-03-17T02:04:50;43.30;;;18.10;;
76550;SDS011;65393;53.160;18.170;2023-03-17T02:07:18;41.00;;;16.80;;
76550;SDS011;65393;53.160;18.170;2023-03-17T02:09:47;47.00;;;19.80;;
76550;SDS011;65393;53.160;18.170;2023-03-17T02:12:14;41.20;;;18.40;;
76550;SDS011;65393;53.160;18.170;2023-03-17T02:14:41;47.50;;;19.80;;
76550;SDS011;65393;53.160;18.170;2023-03-17T02:17:09;47.00;;;19.10;;
76550;SDS011;65393;53.160;18.170;2023-03-17T02:19:36;42.80;;;18.70;;
76550;SDS011;65393;53.160;18.170;2023-03-17T02:22:04;46.10;;;19.30;;
76550;SDS011;65393;53.160;18.170;2023-03-17T02:24:35;36.70;;;15.00;;
76550;SDS011;65393;53.160;18.170;2023-03-17T02:29:46;58.50;;;22.90;;
76550;SDS011;65393;53.160;18.170;2023-03-17T02:32:13;50.90;;;21.40;;
76550;SDS011;65393;53.160;18.170;2023-03-17T02:34:43;49.90;;;21.70;;
76550;SDS011;65393;53.160;18.170;2023-03-17T02:37:14;58.10;;;23.00;;
76550;SDS011;65393;53.160;18.170;2023-03-17T02:39:42;43.00;;;20.00;;
76550;SDS011;65393;53.160;18.170;2023-03-17T02:42:10;50.10;;;22.20;;
76550;SDS011;65393;53.160;18.170;2023-03-17T02:44:38;57.20;;;23.00;;
76550;SDS011;65393;53.160;18.170;2023-03-17T02:47:05;51.40;;;21.10;;
76550;SDS011;65393;53.160;18.170;2023-03-17T02:49:33;47.70;;;19.20;;
76550;SDS011;65393;53.160;18.170;2023-03-17T02:52:03;42.10;;;17.10;;
76550;SDS011;65393;53.160;18.170;2023-03-17T02:54:30;49.50;;;20.60;;
76550;SDS011;65393;53.160;18.170;2023-03-17T02:56:57;41.70;;;18.20;;
76550;SDS011;65393;53.160;18.170;2023-03-17T02:59:25;42.30;;;16.60;;
76550;SDS011;65393;53.160;18.170;2023-03-17T03:01:52;41.70;;;18.00;;
76550;SDS011;65393;53.160;18.170;2023-03-17T03:04:18;44.30;;;17.90;;
76550;SDS011;65393;53.160;18.170;2023-03-17T03:06:46;53.90;;;20.20;;
76550;SDS011;65393;53.160;18.170;2023-03-17T03:09:13;41.70;;;18.80;;
76550;SDS011;65393;53.160;18.170;2023-03-17T03:11:40;50.30;;;20.90;;
76550;SDS011;65393;53.160;18.170;2023-03-17T03:14:08;33.70;;;13.70;;
76550;SDS011;65393;53.160;18.170;2023-03-17T03:16:35;44.10;;;17.70;;
76550;SDS011;65393;53.160;18.170;2023-03-17T03:19:03;33.00;;;13.40;;
76550;SDS011;65393;53.160;18.170;2023-03-17T03:21:31;50.80;;;19.20;;
76550;SDS011;65393;53.160;18.170;2023-03-17T03:23:57;42.40;;;17.90;;
76550;SDS011;65393;53.160;18.170;2023-03-17T03:26:24;40.70;;;18.30;;
76550;SDS011;65393;53.160;18.170;2023-03-17T03:28:51;45.00;;;19.00;;
76550;SDS011;65393;53.160;18.170;2023-03-17T03:31:19;48.30;;;20.50;;
76550;SDS011;65393;53.160;18.170;2023-03-17T03:33:45;49.70;;;19.70;;
76550;SDS011;65393;53.160;18.170;2023-03-17T03:36:12;44.90;;;20.00;;
76550;SDS011;65393;53.160;18.170;2023-03-17T03:38:40;34.80;;;14.20;;
76550;SDS011;65393;53.160;18.170;2023-03-17T03:41:07;45.40;;;18.50;;
76550;SDS011;65393;53.160;18.170;2023-03-17T03:43:34;40.30;;;17.30;;
76550;SDS011;65393;53.160;18.170;2023-03-17T03:46:02;36.60;;;14.60;;
76550;SDS011;65393;53.160;18.170;2023-03-17T03:48:29;40.20;;;16.20;;
76550;SDS011;65393;53.160;18.170;2023-03-17T03:50:57;43.90;;;18.50;;
76550;SDS011;65393;53.160;18.170;2023-03-17T03:53:25;43.80;;;18.50;;
76550;SDS011;65393;53.160;18.170;2023-03-17T03:55:52;44.30;;;18.80;;
76550;SDS011;65393;53.160;18.170;2023-03-17T03:58:20;43.20;;;16.50;;
76550;SDS011;65393;53.160;18.170;2023-03-17T04:00:47;38.90;;;16.20;;
76550;SDS011;65393;53.160;18.170;2023-03-17T04:03:14;45.50;;;18.90;;
76550;SDS011;65393;53.160;18.170;2023-03-17T04:05:41;41.20;;;16.50;;
76550;SDS011;65393;53.160;18.170;2023-03-17T04:08:08;41.70;;;17.20;;
76550;SDS011;65393;53.160;18.170;2023-03-17T04:10:36;39.70;;;16.80;;
76550;SDS011;65393;53.160;18.170;2023-03-17T04:13:03;37.90;;;18.00;;
76550;SDS011;65393;53.160;18.170;2023-03-17T04:15:30;33.40;;;14.20;;
76550;SDS011;65393;53.160;18.170;2023-03-17T04:17:56;39.40;;;17.60;;
76550;SDS011;65393;53.160;18.170;2023-03-17T04:20:23;36.80;;;15.40;;
76550;SDS011;65393;53.160;18.170;2023-03-17T04:22:50;41.70;;;19.00;;
76550;SDS011;65393;53.160;18.170;2023-03-17T04:25:17;22.10;;;10.20;;
76550;SDS011;65393;53.160;18.170;2023-03-17T04:27:43;40.90;;;16.40;;
76550;SDS011;65393;53.160;18.170;2023-03-17T04:30:13;32.40;;;14.40;;
76550;SDS011;65393;53.160;18.170;2023-03-17T04:32:42;32.00;;;14.80;;
76550;SDS011;65393;53.160;18.170;2023-03-17T04:35:11;38.50;;;16.40;;
76550;SDS011;65393;53.160;18.170;2023-03-17T04:37:43;39.70;;;16.60;;
76550;SDS011;65393;53.160;18.170;2023-03-17T04:40:10;37.40;;;17.00;;
76550;SDS011;65393;53.160;18.170;2023-03-17T04:42:39;34.30;;;13.80;;
76550;SDS011;65393;53.160;18.170;2023-03-17T04:45:06;38.10;;;16.20;;
76550;SDS011;65393;53.160;18.170;2023-03-17T04:47:35;43.10;;;18.20;;
76550;SDS011;65393;53.160;18.170;2023-03-17T04:50:03;39.90;;;16.10;;
76550;SDS011;65393;53.160;18.170;2023-03-17T04:52:30;42.10;;;18.10;;
76550;SDS011;65393;53.160;18.170;2023-03-17T04:54:57;38.20;;;16.40;;
76550;SDS011;65393;53.160;18.170;2023-03-17T04:57:24;39.00;;;17.00;;
76550;SDS011;65393;53.160;18.170;2023-03-17T04:59:50;38.60;;;16.10;;
76550;SDS011;65393;53.160;18.170;2023-03-17T05:02:17;31.70;;;15.40;;
76550;SDS011;65393;53.160;18.170;2023-03-17T05:04:44;38.50;;;14.20;;
76550;SDS011;65393;53.160;18.170;2023-03-17T05:07:11;35.50;;;16.00;;
76550;SDS011;65393;53.160;18.170;2023-03-17T05:09:38;35.80;;;14.90;;
76550;SDS011;65393;53.160;18.170;2023-03-17T05:12:06;38.60;;;15.40;;
76550;SDS011;65393;53.160;18.170;2023-03-17T05:14:34;37.80;;;15.80;;
76550;SDS011;65393;53.160;18.170;2023-03-17T05:17:01;31.10;;;13.90;;
76550;SDS011;65393;53.160;18.170;2023-03-17T05:19:28;36.70;;;16.50;;
76550;SDS011;65393;53.160;18.170;2023-03-17T05:21:55;35.20;;;14.70;;
76550;SDS011;65393;53.160;18.170;2023-03-17T05:24:22;36.30;;;15.40;;
76550;SDS011;65393;53.160;18.170;2023-03-17T05:26:48;34.20;;;13.70;;
76550;SDS011;65393;53.160;18.170;2023-03-17T05:29:15;35.00;;;13.10;;
76550;SDS011;65393;53.160;18.170;2023-03-17T05:31:42;51.80;;;18.00;;
76550;SDS011;65393;53.160;18.170;2023-03-17T05:34:09;62.90;;;21.90;;
76550;SDS011;65393;53.160;18.170;2023-03-17T05:36:35;96.00;;;32.50;;
76550;SDS011;65393;53.160;18.170;2023-03-17T05:39:02;156.50;;;45.00;;
76550;SDS011;65393;53.160;18.170;2023-03-17T05:41:29;123.70;;;38.70;;
76550;SDS011;65393;53.160;18.170;2023-03-17T05:43:56;89.80;;;28.50;;
76550;SDS011;65393;53.160;18.170;2023-03-17T05:46:23;58.20;;;19.00;;
76550;SDS011;65393;53.160;18.170;2023-03-17T05:48:50;40.30;;;17.20;;
76550;SDS011;65393;53.160;18.170;2023-03-17T05:51:17;43.20;;;15.90;;
76550;SDS011;65393;53.160;18.170;2023-03-17T05:53:44;39.20;;;15.00;;
76550;SDS011;65393;53.160;18.170;2023-03-17T05:56:11;52.70;;;21.10;;
76550;SDS011;65393;53.160;18.170;2023-03-17T05:58:38;47.20;;;18.40;;
76550;SDS011;65393;53.160;18.170;2023-03-17T06:01:05;40.50;;;18.70;;
76550;SDS011;65393;53.160;18.170;2023-03-17T06:03:32;40.40;;;18.40;;
76550;SDS011;65393;53.160;18.170;2023-03-17T06:05:58;32.60;;;14.00;;
76550;SDS011;65393;53.160;18.170;2023-03-17T06:08:26;40.60;;;16.30;;
76550;SDS011;65393;53.160;18.170;2023-03-17T06:10:52;42.20;;;15.20;;
76550;SDS011;65393;53.160;18.170;2023-03-17T06:13:19;33.10;;;13.50;;
76550;SDS011;65393;53.160;18.170;2023-03-17T06:15:46;33.80;;;15.50;;
76550;SDS011;65393;53.160;18.170;2023-03-17T06:18:15;34.80;;;13.60;;
76550;SDS011;65393;53.160;18.170;2023-03-17T06:20:42;37.90;;;16.10;;
76550;SDS011;65393;53.160;18.170;2023-03-17T06:23:08;32.00;;;13.60;;
76550;SDS011;65393;53.160;18.170;2023-03-17T06:25:35;35.30;;;14.30;;
76550;SDS011;65393;53.160;18.170;2023-03-17T06:28:04;36.70;;;14.80;;
76550;SDS011;65393;53.160;18.170;2023-03-17T06:30:31;39.30;;;15.40;;
76550;SDS011;65393;53.160;18.170;2023-03-17T06:33:00;30.60;;;12.80;;
76550;SDS011;65393;53.160;18.170;2023-03-17T06:35:28;30.90;;;11.70;;
76550;SDS011;65393;53.160;18.170;2023-03-17T06:37:55;33.80;;;15.50;;
76550;SDS011;65393;53.160;18.170;2023-03-17T06:40:23;34.00;;;13.70;;
76550;SDS011;65393;53.160;18.170;2023-03-17T06:42:50;40.10;;;15.00;;
76550;SDS011;65393;53.160;18.170;2023-03-17T06:45:16;37.50;;;14.30;;
76550;SDS011;65393;53.160;18.170;2023-03-17T06:47:43;34.10;;;14.60;;
76550;SDS011;65393;53.160;18.170;2023-03-17T06:50:10;34.60;;;14.60;;
76550;SDS011;65393;53.160;18.170;2023-03-17T06:52:37;35.80;;;14.00;;
76550;SDS011;65393;53.160;18.170;2023-03-17T06:55:05;27.50;;;13.40;;
76550;SDS011;65393;53.160;18.170;2023-03-17T06:57:32;42.30;;;16.00;;
76550;SDS011;65393;53.160;18.170;2023-03-17T06:59:59;38.80;;;13.40;;
76550;SDS011;65393;53.160;18.170;2023-03-17T07:02:27;39.50;;;15.10;;
76550;SDS011;65393;53.160;18.170;2023-03-17T07:04:53;34.50;;;14.30;;
76550;SDS011;65393;53.160;18.170;2023-03-17T07:07:23;37.60;;;14.70;;
76550;SDS011;65393;53.160;18.170;2023-03-17T07:09:50;34.50;;;14.20;;
76550;SDS011;65393;53.160;18.170;2023-03-17T07:12:18;25.40;;;10.60;;
76550;SDS011;65393;53.160;18.170;2023-03-17T07:14:45;34.00;;;13.30;;
76550;SDS011;65393;53.160;18.170;2023-03-17T07:17:12;28.10;;;13.00;;
76550;SDS011;65393;53.160;18.170;2023-03-17T07:19:40;24.40;;;11.30;;
76550;SDS011;65393;53.160;18.170;2023-03-17T07:22:08;29.30;;;12.90;;
76550;SDS011;65393;53.160;18.170;2023-03-17T07:24:37;24.50;;;11.00;;
76550;SDS011;65393;53.160;18.170;2023-03-17T07:27:06;18.40;;;8.60;;
76550;SDS011;65393;53.160;18.170;2023-03-17T07:29:33;24.50;;;11.20;;
76550;SDS011;65393;53.160;18.170;2023-03-17T07:32:00;27.30;;;12.40;;
76550;SDS011;65393;53.160;18.170;2023-03-17T07:34:27;28.10;;;12.00;;
76550;SDS011;65393;53.160;18.170;2023-03-17T07:36:54;23.20;;;10.40;;
76550;SDS011;65393;53.160;18.170;2023-03-17T07:39:21;30.80;;;13.00;;
76550;SDS011;65393;53.160;18.170;2023-03-17T07:41:48;29.90;;;12.40;;
76550;SDS011;65393;53.160;18.170;2023-03-17T07:44:20;33.00;;;12.60;;
76550;SDS011;65393;53.160;18.170;2023-03-17T07:46:48;30.40;;;12.00;;
76550;SDS011;65393;53.160;18.170;2023-03-17T07:49:17;25.90;;;12.20;;
76550;SDS011;65393;53.160;18.170;2023-03-17T07:51:44;25.30;;;11.30;;
76550;SDS011;65393;53.160;18.170;2023-03-17T07:54:12;37.10;;;12.20;;
76550;SDS011;65393;53.160;18.170;2023-03-17T07:56:40;31.90;;;12.40;;
76550;SDS011;65393;53.160;18.170;2023-03-17T07:59:07;36.70;;;14.10;;
76550;SDS011;65393;53.160;18.170;2023-03-17T08:01:34;33.60;;;12.70;;
76550;SDS011;65393;53.160;18.170;2023-03-17T08:04:01;30.20;;;13.30;;
76550;SDS011;65393;53.160;18.170;2023-03-17T08:06:30;22.90;;;11.40;;
76550;SDS011;65393;53.160;18.170;2023-03-17T08:08:57;26.80;;;12.30;;
76550;SDS011;65393;53.160;18.170;2023-03-17T08:11:24;29.50;;;14.30;;
76550;SDS011;65393;53.160;18.170;2023-03-17T08:13:51;28.40;;;12.60;;
76550;SDS011;65393;53.160;18.170;2023-03-17T08:16:18;27.20;;;11.50;;
76550;SDS011;65393;53.160;18.170;2023-03-17T08:18:45;28.20;;;12.80;;
76550;SDS011;65393;53.160;18.170;2023-03-17T08:21:11;23.00;;;11.40;;
76550;SDS011;65393;53.160;18.170;2023-03-17T08:23:38;24.30;;;11.20;;
76550;SDS011;65393;53.160;18.170;2023-03-17T08:26:05;26.40;;;11.80;;
76550;SDS011;65393;53.160;18.170;2023-03-17T08:28:32;21.60;;;10.30;;
76550;SDS011;65393;53.160;18.170;2023-03-17T08:31:09;21.30;;;10.20;;
76550;SDS011;65393;53.160;18.170;2023-03-17T08:33:39;23.10;;;10.50;;
76550;SDS011;65393;53.160;18.170;2023-03-17T08:36:08;25.90;;;11.10;;
76550;SDS011;65393;53.160;18.170;2023-03-17T08:38:36;24.90;;;10.00;;
76550;SDS011;65393;53.160;18.170;2023-03-17T08:41:05;24.30;;;11.20;;
76550;SDS011;65393;53.160;18.170;2023-03-17T08:43:34;28.10;;;10.30;;
76550;SDS011;65393;53.160;18.170;2023-03-17T08:46:04;19.70;;;10.30;;
76550;SDS011;65393;53.160;18.170;2023-03-17T08:48:34;21.40;;;9.20;;
76550;SDS011;65393;53.160;18.170;2023-03-17T08:51:03;19.70;;;8.80;;
76550;SDS011;65393;53.160;18.170;2023-03-17T08:53:31;21.00;;;9.40;;
76550;SDS011;65393;53.160;18.170;2023-03-17T08:56:00;20.80;;;10.00;;
76550;SDS011;65393;53.160;18.170;2023-03-17T08:58:28;20.70;;;8.90;;
76550;SDS011;65393;53.160;18.170;2023-03-17T09:00:58;21.20;;;9.60;;
76550;SDS011;65393;53.160;18.170;2023-03-17T09:05:53;24.20;;;8.90;;
76550;SDS011;65393;53.160;18.170;2023-03-17T09:08:20;27.70;;;10.60;;
76550;SDS011;65393;53.160;18.170;2023-03-17T09:10:48;19.90;;;8.80;;
76550;SDS011;65393;53.160;18.170;2023-03-17T09:13:15;20.10;;;8.90;;
76550;SDS011;65393;53.160;18.170;2023-03-17T09:15:42;23.30;;;8.90;;
76550;SDS011;65393;53.160;18.170;2023-03-17T09:18:10;18.70;;;7.90;;
76550;SDS011;65393;53.160;18.170;2023-03-17T09:20:38;18.10;;;7.30;;
76550;SDS011;65393;53.160;18.170;2023-03-17T09:23:05;16.80;;;6.90;;
76550;SDS011;65393;53.160;18.170;2023-03-17T09:25:33;15.60;;;6.70;;
76550;SDS011;65393;53.160;18.170;2023-03-17T09:28:01;17.60;;;7.10;;
76550;SDS011;65393;53.160;18.170;2023-03-17T09:30:29;18.00;;;7.30;;
76550;SDS011;65393;53.160;18.170;2023-03-17T09:32:58;17.30;;;6.60;;
76550;SDS011;65393;53.160;18.170;2023-03-17T09:35:26;20.10;;;7.50;;
76550;SDS011;65393;53.160;18.170;2023-03-17T09:37:53;19.50;;;6.80;;
76550;SDS011;65393;53.160;18.170;2023-03-17T09:40:21;17.90;;;7.30;;
76550;SDS011;65393;53.160;18.170;2023-03-17T09:45:43;21.20;;;6.90;;
76550;SDS011;65393;53.160;18.170;2023-03-17T09:51:09;15.00;;;7.00;;
76550;SDS011;65393;53.160;18.170;2023-03-17T09:53:50;18.30;;;7.60;;
76550;SDS011;65393;53.160;18.170;2023-03-17T09:56:25;15.50;;;6.40;;
76550;SDS011;65393;53.160;18.170;2023-03-17T09:59:05;15.70;;;6.70;;
76550;SDS011;65393;53.160;18.170;2023-03-17T10:01:35;20.60;;;7.40;;
76550;SDS011;65393;53.160;18.170;2023-03-17T10:04:07;15.50;;;7.20;;
76550;SDS011;65393;53.160;18.170;2023-03-17T10:06:36;14.50;;;6.70;;
76550;SDS011;65393;53.160;18.170;2023-03-17T10:09:25;17.20;;;7.70;;
76550;SDS011;65393;53.160;18.170;2023-03-17T10:12:09;18.40;;;7.30;;
76550;SDS011;65393;53.160;18.170;2023-03-17T10:17:13;17.10;;;6.60;;
76550;SDS011;65393;53.160;18.170;2023-03-17T10:19:44;15.50;;;7.00;;
76550;SDS011;65393;53.160;18.170;2023-03-17T10:22:30;21.10;;;7.30;;
76550;SDS011;65393;53.160;18.170;2023-03-17T10:25:05;18.80;;;6.10;;
76550;SDS011;65393;53.160;18.170;2023-03-17T10:27:39;18.70;;;7.60;;
76550;SDS011;65393;53.160;18.170;2023-03-17T10:30:13;14.70;;;6.10;;
76550;SDS011;65393;53.160;18.170;2023-03-17T10:32:43;11.30;;;5.30;;
76550;SDS011;65393;53.160;18.170;2023-03-17T10:35:13;10.70;;;5.30;;
76550;SDS011;65393;53.160;18.170;2023-03-17T10:37:42;11.10;;;5.00;;
76550;SDS011;65393;53.160;18.170;2023-03-17T10:40:22;12.70;;;5.50;;
76550;SDS011;65393;53.160;18.170;2023-03-17T10:42:53;14.00;;;5.20;;
76550;SDS011;65393;53.160;18.170;2023-03-17T10:45:30;10.90;;;4.60;;
76550;SDS011;65393;53.160;18.170;2023-03-17T10:48:00;12.10;;;5.10;;
76550;SDS011;65393;53.160;18.170;2023-03-17T10:50:32;12.10;;;5.00;;
76550;SDS011;65393;53.160;18.170;2023-03-17T10:55:38;9.80;;;4.50;;
76550;SDS011;65393;53.160;18.170;2023-03-17T10:58:18;11.40;;;5.30;;
76550;SDS011;65393;53.160;18.170;2023-03-17T11:01:03;11.00;;;4.70;;
76550;SDS011;65393;53.160;18.170;2023-03-17T11:03:43;13.50;;;4.90;;
76550;SDS011;65393;53.160;18.170;2023-03-17T11:06:13;9.40;;;4.60;;
76550;SDS011;65393;53.160;18.170;2023-03-17T11:08:50;10.10;;;5.30;;
76550;SDS011;65393;53.160;18.170;2023-03-17T11:17:25;13.00;;;5.10;;
76550;SDS011;65393;53.160;18.170;2023-03-17T11:19:46;12.10;;;4.70;;
76550;SDS011;65393;53.160;18.170;2023-03-17T11:22:38;12.80;;;5.50;;
76550;SDS011;65393;53.160;18.170;2023-03-17T11:28:07;11.90;;;4.80;;
76550;SDS011;65393;53.160;18.170;2023-03-17T11:36:54;15.30;;;6.20;;
76550;SDS011;65393;53.160;18.170;2023-03-17T11:42:22;11.70;;;6.00;;
76550;SDS011;65393;53.160;18.170;2023-03-17T11:50:24;14.00;;;4.50;;
76550;SDS011;65393;53.160;18.170;2023-03-17T11:58:35;12.70;;;5.50;;
76550;SDS011;65393;53.160;18.170;2023-03-17T12:01:08;12.60;;;5.30;;
76550;SDS011;65393;53.160;18.170;2023-03-17T12:03:46;12.30;;;5.70;;
76550;SDS011;65393;53.160;18.170;2023-03-17T12:06:35;9.30;;;4.40;;
76550;SDS011;65393;53.160;18.170;2023-03-17T12:12:08;13.80;;;6.50;;
76550;SDS011;65393;53.160;18.170;2023-03-17T12:14:41;10.80;;;6.10;;
76550;SDS011;65393;53.160;18.170;2023-03-17T12:17:18;12.70;;;5.60;;
76550;SDS011;65393;53.160;18.170;2023-03-17T12:22:49;12.00;;;4.70;;
76550;SDS011;65393;53.160;18.170;2023-03-17T12:36:36;13.10;;;5.40;;
76550;SDS011;65393;53.160;18.170;2023-03-17T12:39:05;10.80;;;5.00;;
76550;SDS011;65393;53.160;18.170;2023-03-17T12:41:45;13.20;;;5.60;;
76550;SDS011;65393;53.160;18.170;2023-03-17T12:44:41;8.70;;;4.20;;
76550;SDS011;65393;53.160;18.170;2023-03-17T12:59:06;11.00;;;4.10;;
76550;SDS011;65393;53.160;18.170;2023-03-17T13:01:43;9.90;;;3.80;;
76550;SDS011;65393;53.160;18.170;2023-03-17T13:10:09;10.50;;;3.90;;
76550;SDS011;65393;53.160;18.170;2023-03-17T13:20:50;9.30;;;3.70;;
76550;SDS011;65393;53.160;18.170;2023-03-17T13:23:42;10.10;;;4.30;;
76550;SDS011;65393;53.160;18.170;2023-03-17T13:26:14;9.90;;;3.20;;
76550;SDS011;65393;53.160;18.170;2023-03-17T13:28:45;6.00;;;2.60;;
76550;SDS011;65393;53.160;18.170;2023-03-17T13:34:12;15.50;;;4.10;;
76550;SDS011;65393;53.160;18.170;2023-03-17T13:36:45;9.90;;;3.80;;
76550;SDS011;65393;53.160;18.170;2023-03-17T13:45:37;13.40;;;3.40;;
76550;SDS011;65393;53.160;18.170;2023-03-17T13:50:56;7.10;;;3.10;;
76550;SDS011;65393;53.160;18.170;2023-03-17T13:53:45;9.60;;;3.60;;
76550;SDS011;65393;53.160;18.170;2023-03-17T14:01:28;7.00;;;3.70;;
76550;SDS011;65393;53.160;18.170;2023-03-17T14:04:11;7.80;;;3.70;;
76550;SDS011;65393;53.160;18.170;2023-03-17T14:06:52;9.50;;;3.90;;
76550;SDS011;65393;53.160;18.170;2023-03-17T14:09:55;11.90;;;4.30;;
76550;SDS011;65393;53.160;18.170;2023-03-17T14:12:40;8.10;;;3.40;;
76550;SDS011;65393;53.160;18.170;2023-03-17T14:15:13;8.50;;;4.00;;
76550;SDS011;65393;53.160;18.170;2023-03-17T14:17:43;9.30;;;4.10;;
76550;SDS011;65393;53.160;18.170;2023-03-17T14:22:44;6.70;;;3.20;;
76550;SDS011;65393;53.160;18.170;2023-03-17T14:25:14;8.20;;;3.70;;
76550;SDS011;65393;53.160;18.170;2023-03-17T14:27:42;8.60;;;4.30;;
76550;SDS011;65393;53.160;18.170;2023-03-17T14:30:16;10.90;;;4.10;;
76550;SDS011;65393;53.160;18.170;2023-03-17T14:32:56;6.60;;;3.80;;
76550;SDS011;65393;53.160;18.170;2023-03-17T14:35:31;13.20;;;4.30;;
76550;SDS011;65393;53.160;18.170;2023-03-17T14:38:14;14.40;;;5.60;;
76550;SDS011;65393;53.160;18.170;2023-03-17T14:40:47;11.80;;;5.00;;
76550;SDS011;65393;53.160;18.170;2023-03-17T14:43:15;13.40;;;5.60;;
76550;SDS011;65393;53.160;18.170;2023-03-17T14:45:46;15.50;;;5.30;;
76550;SDS011;65393;53.160;18.170;2023-03-17T14:48:14;11.00;;;4.30;;
76550;SDS011;65393;53.160;18.170;2023-03-17T14:50:48;21.70;;;5.50;;
76550;SDS011;65393;53.160;18.170;2023-03-17T14:53:17;9.00;;;4.30;;
76550;SDS011;65393;53.160;18.170;2023-03-17T14:55:45;12.20;;;4.80;;
76550;SDS011;65393;53.160;18.170;2023-03-17T14:58:17;12.20;;;5.00;;
76550;SDS011;65393;53.160;18.170;2023-03-17T15:01:19;16.10;;;6.30;;
76550;SDS011;65393;53.160;18.170;2023-03-17T15:06:55;14.60;;;6.50;;
76550;SDS011;65393;53.160;18.170;2023-03-17T15:12:21;14.80;;;5.30;;
76550;SDS011;65393;53.160;18.170;2023-03-17T15:15:04;17.10;;;5.80;;
76550;SDS011;65393;53.160;18.170;2023-03-17T15:17:43;12.40;;;5.30;;
76550;SDS011;65393;53.160;18.170;2023-03-17T15:20:16;10.90;;;4.60;;
76550;SDS011;65393;53.160;18.170;2023-03-17T15:22:55;15.00;;;6.10;;
76550;SDS011;65393;53.160;18.170;2023-03-17T15:25:23;12.40;;;5.00;;
76550;SDS011;65393;53.160;18.170;2023-03-17T15:28:19;11.00;;;4.30;;
76550;SDS011;65393;53.160;18.170;2023-03-17T15:30:51;10.70;;;4.60;;
76550;SDS011;65393;53.160;18.170;2023-03-17T15:33:22;8.50;;;4.30;;
76550;SDS011;65393;53.160;18.170;2023-03-17T15:35:56;9.90;;;4.40;;
76550;SDS011;65393;53.160;18.170;2023-03-17T15:38:27;7.90;;;4.00;;
76550;SDS011;65393;53.160;18.170;2023-03-17T15:40:54;10.00;;;4.60;;
76550;SDS011;65393;53.160;18.170;2023-03-17T15:43:22;9.80;;;4.40;;
76550;SDS011;65393;53.160;18.170;2023-03-17T15:46:13;7.70;;;4.10;;
76550;SDS011;65393;53.160;18.170;2023-03-17T15:48:41;9.30;;;4.50;;
76550;SDS011;65393;53.160;18.170;2023-03-17T15:51:08;18.00;;;6.50;;
76550;SDS011;65393;53.160;18.170;2023-03-17T15:53:36;12.00;;;5.20;;
76550;SDS011;65393;53.160;18.170;2023-03-17T15:56:03;12.30;;;5.10;;
76550;SDS011;65393;53.160;18.170;2023-03-17T15:58:30;14.60;;;6.00;;
76550;SDS011;65393;53.160;18.170;2023-03-17T16:00:56;11.70;;;5.00;;
76550;SDS011;65393;53.160;18.170;2023-03-17T16:03:33;13.10;;;6.00;;
76550;SDS011;65393;53.160;18.170;2023-03-17T16:08:30;12.70;;;4.80;;
76550;SDS011;65393;53.160;18.170;2023-03-17T16:10:56;11.50;;;5.10;;
76550;SDS011;65393;53.160;18.170;2023-03-17T16:13:23;13.80;;;5.40;;
76550;SDS011;65393;53.160;18.170;2023-03-17T16:15:57;13.20;;;5.70;;
76550;SDS011;65393;53.160;18.170;2023-03-17T16:18:32;14.60;;;6.00;;
76550;SDS011;65393;53.160;18.170;2023-03-17T16:21:03;17.20;;;5.90;;
76550;SDS011;65393;53.160;18.170;2023-03-17T16:23:31;14.20;;;5.50;;
76550;SDS011;65393;53.160;18.170;2023-03-17T16:25:59;15.30;;;6.10;;
76550;SDS011;65393;53.160;18.170;2023-03-17T16:28:27;15.90;;;5.50;;
76550;SDS011;65393;53.160;18.170;2023-03-17T16:30:57;17.10;;;6.90;;